createdAt,value
2018-12-10T00:01:45.208Z,3.30
2018-12-10T00:03:47.802Z,3.20
2018-12-10T00:05:50.394Z,3.10
2018-12-10T00:07:52.996Z,3.90
2018-12-10T00:09:55.552Z,3.10
2018-12-10T00:11:58.231Z,3.70
2018-12-10T00:14:00.777Z,3.20
2018-12-10T00:16:03.421Z,3.97
2018-12-10T00:18:05.994Z,3.20
2018-12-10T00:20:08.542Z,3.10
2018-12-10T00:22:11.146Z,3.43
2018-12-10T00:24:13.703Z,2.83
2018-12-10T00:26:16.273Z,2.90
2018-12-10T00:28:18.853Z,3.63
2018-12-10T00:30:21.412Z,3.70
2018-12-10T00:32:24.001Z,3.47
2018-12-10T00:34:26.565Z,4.37
2018-12-10T00:36:29.138Z,3.83
2018-12-10T00:38:31.727Z,2.97
2018-12-10T00:40:34.287Z,3.80
2018-12-10T00:42:36.865Z,2.77
2018-12-10T00:44:39.414Z,3.37
2018-12-10T00:46:41.986Z,2.80
2018-12-10T00:48:44.561Z,3.30
2018-12-10T00:50:47.199Z,3.33
2018-12-10T00:52:49.803Z,3.17
2018-12-10T00:54:52.360Z,2.73
2018-12-10T00:56:54.952Z,2.93
2018-12-10T00:58:57.527Z,3.23
2018-12-10T01:01:00.106Z,2.73
2018-12-10T01:03:02.699Z,3.07
2018-12-10T01:05:05.556Z,3.40
2018-12-10T01:07:08.156Z,2.77
2018-12-10T01:09:10.719Z,3.07
2018-12-10T01:11:13.281Z,2.60
2018-12-10T01:13:15.903Z,2.43
2018-12-10T01:15:19.026Z,2.73
2018-12-10T01:17:21.616Z,3.17
2018-12-10T01:19:24.178Z,2.57
2018-12-10T01:21:26.741Z,3.27
2018-12-10T01:23:29.344Z,3.10
2018-12-10T01:25:32.015Z,2.80
2018-12-10T01:27:34.614Z,2.50
2018-12-10T01:29:37.166Z,3.07
2018-12-10T01:31:39.759Z,3.67
2018-12-10T01:33:42.358Z,3.60
2018-12-10T01:35:44.927Z,5.20
2018-12-10T01:37:47.518Z,2.90
2018-12-10T01:39:50.088Z,2.93
2018-12-10T01:41:52.646Z,4.77
2018-12-10T01:43:55.230Z,3.30
2018-12-10T01:45:57.794Z,3.67
2018-12-10T01:48:00.378Z,3.50
2018-12-10T01:50:02.948Z,3.13
2018-12-10T01:52:05.515Z,3.20
2018-12-10T01:54:08.099Z,3.00
2018-12-10T01:56:10.664Z,3.73
2018-12-10T01:58:13.254Z,2.93
2018-12-10T02:00:15.905Z,2.70
2018-12-10T02:02:18.463Z,3.73
2018-12-10T02:04:21.054Z,3.67
2018-12-10T02:06:23.810Z,2.97
2018-12-10T02:08:26.416Z,3.53
2018-12-10T02:10:29.942Z,3.47
2018-12-10T02:12:32.556Z,2.97
2018-12-10T02:14:35.150Z,2.53
2018-12-10T02:16:37.701Z,3.63
2018-12-10T02:18:40.296Z,3.17
2018-12-10T02:20:42.853Z,3.40
2018-12-10T02:22:45.458Z,3.10
2018-12-10T02:24:48.043Z,2.53
2018-12-10T02:26:51.087Z,4.10
2018-12-10T02:28:59.393Z,3.67
2018-12-10T02:31:01.947Z,3.10
2018-12-10T02:33:04.542Z,2.90
2018-12-10T02:35:07.421Z,3.20
2018-12-10T02:37:09.974Z,3.50
2018-12-10T02:39:12.571Z,3.17
2018-12-10T02:41:15.157Z,2.80
2018-12-10T02:43:17.744Z,2.50
2018-12-10T02:45:20.499Z,2.80
2018-12-10T02:47:23.073Z,2.30
2018-12-10T02:49:26.438Z,2.50
2018-12-10T02:51:28.993Z,1.70
2018-12-10T02:53:31.679Z,1.63
2018-12-10T02:55:35.017Z,2.07
2018-12-10T02:57:37.583Z,1.80
2018-12-10T02:59:40.259Z,2.20
2018-12-10T03:01:42.810Z,2.10
2018-12-10T03:03:45.497Z,2.20
2018-12-10T03:05:48.271Z,2.10
2018-12-10T03:07:51.610Z,1.80
2018-12-10T03:09:54.202Z,1.77
2018-12-10T03:11:56.762Z,1.97
2018-12-10T03:13:59.615Z,1.60
2018-12-10T03:16:02.755Z,1.70
2018-12-10T03:18:05.536Z,1.73
2018-12-10T03:20:08.153Z,2.10
2018-12-10T03:22:10.726Z,2.07
2018-12-10T03:24:14.260Z,2.47
2018-12-10T03:26:16.833Z,1.80
2018-12-10T03:28:19.405Z,2.23
2018-12-10T03:30:21.989Z,2.40
2018-12-10T03:32:25.571Z,1.70
2018-12-10T03:34:28.690Z,1.70
2018-12-10T03:36:31.280Z,2.00
2018-12-10T03:38:33.911Z,1.80
2018-12-10T03:40:36.511Z,1.40
2018-12-10T03:42:39.921Z,1.60
2018-12-10T03:44:42.503Z,1.30
2018-12-10T03:46:45.297Z,1.40
2018-12-10T03:48:47.882Z,1.60
2018-12-10T03:50:50.449Z,1.57
2018-12-10T03:52:53.036Z,1.63
2018-12-10T03:54:55.634Z,1.30
2018-12-10T03:56:58.219Z,1.50
2018-12-10T03:59:00.852Z,1.50
2018-12-10T04:01:03.653Z,1.50
2018-12-10T04:03:06.233Z,1.70
2018-12-10T04:05:08.825Z,1.67
2018-12-10T04:07:11.430Z,1.60
2018-12-10T04:09:14.058Z,1.27
2018-12-10T04:11:16.637Z,1.87
2018-12-10T04:13:19.208Z,1.70
2018-12-10T04:15:21.856Z,1.60
2018-12-10T04:17:24.431Z,1.67
2018-12-10T04:19:27.030Z,1.87
2018-12-10T04:21:29.586Z,2.30
2018-12-10T04:23:32.228Z,1.67
2018-12-10T04:25:34.830Z,1.73
2018-12-10T04:27:37.391Z,2.17
2018-12-10T04:29:39.980Z,1.80
2018-12-10T04:31:42.609Z,2.00
2018-12-10T04:33:45.230Z,2.10
2018-12-10T04:35:48.233Z,2.50
2018-12-10T04:37:50.861Z,1.83
2018-12-10T04:39:53.828Z,2.93
2018-12-10T04:41:56.386Z,2.20
2018-12-10T04:43:59.633Z,1.70
2018-12-10T04:46:03.052Z,2.13
2018-12-10T04:48:05.656Z,1.73
2018-12-10T04:50:08.448Z,2.00
2018-12-10T04:52:11.034Z,2.23
2018-12-10T04:54:13.603Z,1.93
2018-12-10T04:56:16.203Z,1.87
2018-12-10T04:58:18.776Z,2.50
2018-12-10T05:00:21.403Z,2.70
2018-12-10T05:02:24.003Z,2.00
2018-12-10T05:04:26.604Z,2.13
2018-12-10T05:06:29.176Z,2.20
2018-12-10T05:08:31.751Z,2.00
2018-12-10T05:10:34.414Z,2.70
2018-12-10T05:12:37.021Z,2.23
2018-12-10T05:14:40.477Z,2.30
2018-12-10T05:16:43.048Z,2.63
2018-12-10T05:18:45.618Z,2.20
2018-12-10T05:20:48.223Z,2.57
2018-12-10T05:22:50.841Z,2.53
2018-12-10T05:24:53.447Z,2.80
2018-12-10T05:26:56.020Z,2.50
2018-12-10T05:28:58.627Z,3.10
2018-12-10T05:31:01.662Z,3.73
2018-12-10T05:33:04.428Z,3.43
2018-12-10T05:35:07.177Z,2.90
2018-12-10T05:37:09.774Z,3.13
2018-12-10T05:39:12.335Z,3.63
2018-12-10T05:41:15.739Z,3.10
2018-12-10T05:43:18.303Z,3.37
2018-12-10T05:45:23.142Z,4.00
2018-12-10T05:47:25.951Z,3.63
2018-12-10T05:49:29.542Z,3.97
2018-12-10T05:51:33.113Z,3.90
2018-12-10T05:53:35.735Z,3.50
2018-12-10T05:55:38.540Z,3.60
2018-12-10T05:57:41.109Z,4.07
2018-12-10T05:59:43.936Z,4.20
2018-12-10T06:01:46.539Z,4.00
2018-12-10T06:03:49.096Z,4.70
2018-12-10T06:05:52.519Z,4.17
2018-12-10T06:07:55.721Z,5.10
2018-12-10T06:09:58.330Z,5.00
2018-12-10T06:12:00.902Z,5.10
2018-12-10T06:14:04.362Z,5.73
2018-12-10T06:16:06.987Z,5.20
2018-12-10T06:18:09.576Z,5.43
2018-12-10T06:20:13.524Z,5.57
2018-12-10T06:22:17.019Z,5.30
2018-12-10T06:24:19.569Z,5.57
2018-12-10T06:26:22.227Z,5.10
2018-12-10T06:28:24.873Z,5.97
2018-12-10T06:30:27.520Z,6.03
2018-12-10T06:32:30.504Z,5.90
2018-12-10T06:34:33.187Z,6.27
2018-12-10T06:36:35.828Z,6.30
2018-12-10T06:38:38.739Z,5.27
2018-12-10T06:40:41.416Z,5.73
2018-12-10T06:42:44.018Z,5.77
2018-12-10T06:44:46.597Z,7.60
2018-12-10T06:46:49.262Z,5.40
2018-12-10T06:48:51.876Z,5.33
2018-12-10T06:50:54.520Z,6.17
2018-12-10T06:52:57.104Z,5.67
2018-12-10T06:55:01.566Z,7.60
2018-12-10T06:57:04.646Z,6.47
2018-12-10T06:59:07.289Z,6.60
2018-12-10T07:01:09.953Z,7.40
2018-12-10T07:03:12.673Z,6.10
2018-12-10T07:05:15.434Z,7.40
2018-12-10T07:07:18.231Z,7.07
2018-12-10T07:09:21.053Z,7.40
2018-12-10T07:11:23.761Z,7.20
2018-12-10T07:13:26.577Z,6.00
2018-12-10T07:15:29.336Z,7.20
2018-12-10T07:17:32.110Z,6.83
2018-12-10T07:19:34.979Z,6.23
2018-12-10T07:21:37.726Z,6.73
2018-12-10T07:23:40.458Z,5.90
2018-12-10T07:25:43.257Z,5.90
2018-12-10T07:27:46.167Z,6.80
2018-12-10T07:29:48.940Z,7.17
2018-12-10T07:31:51.719Z,8.43
2018-12-10T07:33:54.391Z,7.80
2018-12-10T07:35:57.150Z,9.10
2018-12-10T07:37:59.958Z,7.20
2018-12-10T07:40:02.813Z,8.00
2018-12-10T07:42:05.689Z,7.80
2018-12-10T07:44:08.442Z,6.97
2018-12-10T07:46:11.183Z,8.20
2018-12-10T07:48:13.899Z,8.40
2018-12-10T07:50:16.661Z,7.40
2018-12-10T07:52:19.441Z,9.00
2018-12-10T07:54:22.192Z,7.73
2018-12-10T07:56:28.939Z,7.40
2018-12-10T07:58:29.802Z,6.93
2018-12-10T08:00:32.680Z,6.30
2018-12-10T08:02:35.456Z,6.87
2018-12-10T08:04:38.214Z,5.80
2018-12-10T08:06:41.015Z,6.93
2018-12-10T08:08:43.851Z,6.20
2018-12-10T08:10:46.543Z,6.00
2018-12-10T08:12:49.408Z,7.23
2018-12-10T08:14:52.171Z,6.07
2018-12-10T08:16:54.959Z,7.47
2018-12-10T08:18:57.761Z,6.60
2018-12-10T08:21:02.422Z,5.03
2018-12-10T08:23:05.470Z,5.70
2018-12-10T08:25:08.313Z,4.73
2018-12-10T08:27:11.120Z,5.70
2018-12-10T08:29:13.906Z,6.03
2018-12-10T08:31:16.667Z,5.57
2018-12-10T08:33:19.395Z,5.63
2018-12-10T08:35:22.205Z,4.83
2018-12-10T08:37:25.048Z,4.93
2018-12-10T08:39:27.780Z,4.90
2018-12-10T08:41:30.579Z,5.47
2018-12-10T08:43:33.318Z,5.30
2018-12-10T08:45:36.149Z,5.53
2018-12-10T08:47:38.909Z,5.63
2018-12-10T08:49:41.668Z,4.90
2018-12-10T08:51:44.452Z,5.00
2018-12-10T08:53:47.363Z,5.70
2018-12-10T08:55:50.145Z,5.33
2018-12-10T08:57:52.926Z,5.20
2018-12-10T08:59:55.737Z,5.93
2018-12-10T09:01:58.540Z,5.97
2018-12-10T09:04:01.352Z,4.73
2018-12-10T09:06:04.230Z,6.33
2018-12-10T09:08:07.380Z,5.03
2018-12-10T09:10:10.156Z,6.30
2018-12-10T09:12:13.051Z,5.93
2018-12-10T09:14:17.261Z,5.80
2018-12-10T09:16:20.355Z,5.07
2018-12-10T09:18:23.458Z,5.23
2018-12-10T09:20:26.380Z,5.77
2018-12-10T09:22:29.280Z,6.20
2018-12-10T09:24:32.168Z,5.87
2018-12-10T09:26:35.275Z,5.00
2018-12-10T09:28:38.262Z,5.00
2018-12-10T09:30:42.421Z,5.40
2018-12-10T09:32:45.289Z,6.30
2018-12-10T09:34:48.103Z,5.53
2018-12-10T09:36:51.091Z,6.67
2018-12-10T09:38:54.122Z,5.63
2018-12-10T09:40:57.043Z,5.43
2018-12-10T09:42:59.868Z,5.13
2018-12-10T09:45:02.812Z,5.40
2018-12-10T09:47:05.819Z,5.60
2018-12-10T09:49:08.865Z,4.43
2018-12-10T09:51:11.883Z,5.30
2018-12-10T09:53:14.736Z,5.13
2018-12-10T09:55:17.730Z,5.37
2018-12-10T09:57:21.123Z,4.00
2018-12-10T09:59:24.003Z,4.77
2018-12-10T10:01:26.970Z,4.90
2018-12-10T10:03:29.808Z,3.80
2018-12-10T10:05:33.200Z,3.67
2018-12-10T10:07:35.996Z,3.60
2018-12-10T10:09:38.935Z,2.90
2018-12-10T10:11:41.927Z,3.30
2018-12-10T10:13:44.811Z,3.00
2018-12-10T10:15:48.900Z,3.10
2018-12-10T10:17:51.761Z,3.47
2018-12-10T10:19:54.619Z,3.20
2018-12-10T10:21:57.449Z,3.07
2018-12-10T10:24:00.235Z,2.73
2018-12-10T10:26:03.046Z,2.60
2018-12-10T10:28:05.886Z,2.60
2018-12-10T10:30:08.823Z,3.20
2018-12-10T10:32:11.673Z,2.87
2018-12-10T10:34:14.517Z,2.97
2018-12-10T10:36:17.460Z,4.77
2018-12-10T10:38:20.278Z,3.50
2018-12-10T10:40:23.247Z,2.97
2018-12-10T10:42:26.052Z,2.60
2018-12-10T10:44:28.767Z,2.80
2018-12-10T10:46:31.540Z,2.73
2018-12-10T10:48:34.258Z,3.10
2018-12-10T10:50:37.171Z,3.67
2018-12-10T10:52:39.937Z,2.30
2018-12-10T10:54:42.889Z,2.10
2018-12-10T10:56:46.727Z,2.00
2018-12-10T10:58:49.528Z,2.40
2018-12-10T11:00:57.970Z,3.93
2018-12-10T11:03:05.294Z,1.90
2018-12-10T11:05:08.200Z,2.00
2018-12-10T11:07:11.014Z,2.40
2018-12-10T11:09:15.557Z,2.10
2018-12-10T11:11:18.924Z,2.00
2018-12-10T11:13:21.787Z,3.00
2018-12-10T11:15:25.196Z,2.23
2018-12-10T11:17:28.018Z,2.50
2018-12-10T11:19:30.758Z,2.10
2018-12-10T11:21:33.646Z,2.20
2018-12-10T11:23:36.397Z,2.00
2018-12-10T11:25:39.230Z,2.40
2018-12-10T11:27:42.984Z,2.23
2018-12-10T11:29:45.902Z,2.67
2018-12-10T11:31:48.711Z,2.50
2018-12-10T11:33:52.242Z,3.73
2018-12-10T11:35:55.097Z,2.50
2018-12-10T11:37:57.986Z,3.33
2018-12-10T11:40:00.749Z,2.17
2018-12-10T11:42:03.597Z,2.60
2018-12-10T11:44:06.417Z,2.60
2018-12-10T11:46:09.264Z,2.00
2018-12-10T11:48:12.018Z,2.20
2018-12-10T11:50:15.011Z,1.80
2018-12-10T11:52:18.145Z,2.10
2018-12-10T11:54:21.639Z,2.43
2018-12-10T11:56:24.485Z,2.50
2018-12-10T11:58:27.332Z,4.70
2018-12-10T12:00:30.235Z,2.67
2018-12-10T12:02:33.061Z,2.50
2018-12-10T12:04:35.856Z,2.10
2018-12-10T12:06:38.658Z,2.10
2018-12-10T12:08:45.322Z,2.00
2018-12-10T12:10:48.151Z,2.30
2018-12-10T12:12:51.002Z,1.87
2018-12-10T12:14:53.834Z,2.30
2018-12-10T12:16:56.737Z,2.40
2018-12-10T12:19:00.530Z,2.03
2018-12-10T12:21:03.322Z,2.13
2018-12-10T12:23:06.228Z,1.93
2018-12-10T12:25:09.062Z,2.17
2018-12-10T12:27:11.889Z,2.07
2018-12-10T12:29:14.660Z,1.70
2018-12-10T12:31:17.969Z,2.27
2018-12-10T12:33:21.415Z,2.07
2018-12-10T12:35:24.170Z,1.93
2018-12-10T12:37:27.474Z,2.70
2018-12-10T12:39:30.260Z,2.37
2018-12-10T12:41:33.086Z,1.93
2018-12-10T12:43:35.919Z,1.93
2018-12-10T12:45:38.705Z,1.90
2018-12-10T12:47:41.593Z,2.00
2018-12-10T12:49:44.465Z,2.80
2018-12-10T12:51:47.330Z,2.07
2018-12-10T12:53:50.787Z,1.90
2018-12-10T12:55:53.742Z,1.70
2018-12-10T12:57:56.701Z,1.87
2018-12-10T12:59:59.537Z,2.10
2018-12-10T13:02:02.336Z,2.40
2018-12-10T13:04:05.120Z,1.70
2018-12-10T13:06:07.992Z,2.20
2018-12-10T13:08:10.742Z,2.50
2018-12-10T13:10:13.520Z,1.80
2018-12-10T13:12:16.338Z,2.47
2018-12-10T13:14:19.143Z,2.50
2018-12-10T13:16:21.958Z,2.67
2018-12-10T13:18:24.806Z,2.50
2018-12-10T13:20:27.579Z,2.13
2018-12-10T13:22:30.385Z,2.23
2018-12-10T13:24:33.256Z,2.87
2018-12-10T13:26:35.986Z,2.97
2018-12-10T13:28:38.825Z,2.20
2018-12-10T13:30:41.665Z,2.70
2018-12-10T13:32:44.457Z,2.80
2018-12-10T13:34:47.607Z,3.10
2018-12-10T13:36:50.474Z,3.13
2018-12-10T13:38:53.294Z,2.63
2018-12-10T13:40:56.307Z,2.87
2018-12-10T13:42:59.129Z,3.43
2018-12-10T13:45:02.705Z,4.00
2018-12-10T13:47:05.581Z,2.97
2018-12-10T13:49:08.382Z,2.10
2018-12-10T13:51:11.199Z,1.80
2018-12-10T13:53:14.006Z,2.30
2018-12-10T13:55:16.808Z,2.30
2018-12-10T13:57:19.577Z,2.07
2018-12-10T13:59:22.394Z,2.60
2018-12-10T14:01:24.996Z,2.50
2018-12-10T14:03:27.540Z,2.93
2018-12-10T14:05:30.113Z,2.30
2018-12-10T14:07:32.700Z,2.30
2018-12-10T14:09:35.261Z,2.43
2018-12-10T14:11:37.846Z,2.30
2018-12-10T14:13:40.420Z,2.60
2018-12-10T14:15:42.994Z,2.30
2018-12-10T14:17:45.563Z,2.73
2018-12-10T14:19:48.118Z,2.60
2018-12-10T14:21:50.712Z,2.50
2018-12-10T14:23:54.002Z,2.67
2018-12-10T14:25:56.713Z,2.70
2018-12-10T14:27:59.518Z,2.60
2018-12-10T14:30:02.292Z,3.73
2018-12-10T14:32:05.138Z,2.97
2018-12-10T14:34:13.730Z,2.63
2018-12-10T14:36:16.596Z,2.33
2018-12-10T14:38:19.392Z,3.73
2018-12-10T14:40:22.309Z,2.50
2018-12-10T14:42:25.139Z,3.00
2018-12-10T14:44:28.900Z,3.10
2018-12-10T14:46:31.662Z,2.40
2018-12-10T14:48:34.253Z,2.00
2018-12-10T14:50:36.811Z,2.20
2018-12-10T14:52:39.395Z,2.17
2018-12-10T14:54:41.959Z,2.57
2018-12-10T14:56:44.519Z,2.33
2018-12-10T14:58:47.110Z,2.60
2018-12-10T15:00:49.667Z,3.83
2018-12-10T15:02:52.259Z,3.50
2018-12-10T15:04:54.811Z,3.37
2018-12-10T15:06:57.382Z,3.73
2018-12-10T15:08:59.988Z,2.47
2018-12-10T15:11:02.551Z,2.63
2018-12-10T15:13:05.145Z,2.53
2018-12-10T15:15:07.915Z,2.23
2018-12-10T15:17:10.503Z,4.63
2018-12-10T15:19:13.139Z,2.90
2018-12-10T15:21:15.710Z,3.93
2018-12-10T15:23:18.289Z,3.17
2018-12-10T15:25:20.856Z,3.40
2018-12-10T15:27:23.461Z,2.90
2018-12-10T15:29:26.031Z,2.50
2018-12-10T15:31:28.587Z,2.57
2018-12-10T15:33:31.185Z,2.30
2018-12-10T15:35:33.751Z,2.07
2018-12-10T15:37:36.443Z,2.00
2018-12-10T15:39:39.014Z,2.70
2018-12-10T15:41:41.581Z,1.97
2018-12-10T15:43:44.159Z,3.00
2018-12-10T15:45:46.715Z,2.10
2018-12-10T15:47:49.296Z,2.43
2018-12-10T15:49:52.527Z,2.73
2018-12-10T15:51:55.110Z,3.80
2018-12-10T15:53:57.682Z,2.40
2018-12-10T15:56:00.232Z,2.27
2018-12-10T15:58:02.863Z,2.77
2018-12-10T16:00:08.061Z,3.70
2018-12-10T16:02:10.884Z,3.60
2018-12-10T16:04:13.477Z,3.33
2018-12-10T16:06:16.028Z,3.47
2018-12-10T16:08:18.600Z,3.50
2018-12-10T16:10:21.146Z,3.00
2018-12-10T16:12:23.708Z,3.20
2018-12-10T16:14:26.281Z,3.00
2018-12-10T16:16:28.838Z,3.10
2018-12-10T16:18:31.442Z,2.73
2018-12-10T16:20:33.998Z,2.93
2018-12-10T16:22:36.549Z,2.63
2018-12-10T16:24:39.165Z,2.20
2018-12-10T16:26:41.745Z,2.30
2018-12-10T16:28:44.360Z,2.83
2018-12-10T16:30:47.203Z,2.90
2018-12-10T16:32:49.770Z,2.67
2018-12-10T16:34:52.372Z,2.50
2018-12-10T16:36:54.922Z,3.47
2018-12-10T16:38:57.509Z,3.30
2018-12-10T16:41:00.591Z,4.87
2018-12-10T16:43:03.183Z,4.10
2018-12-10T16:45:06.955Z,3.70
2018-12-10T16:47:09.518Z,3.60
2018-12-10T16:49:12.903Z,3.87
2018-12-10T16:51:15.506Z,4.70
2018-12-10T16:53:18.171Z,4.90
2018-12-10T16:55:20.793Z,6.37
2018-12-10T16:57:23.346Z,4.90
2018-12-10T16:59:25.927Z,4.40
2018-12-10T17:01:28.474Z,8.47
2018-12-10T17:03:31.076Z,9.17
2018-12-10T17:05:33.649Z,8.60
2018-12-10T17:07:36.249Z,8.03
2018-12-10T17:09:39.127Z,5.53
2018-12-10T17:11:41.872Z,3.57
2018-12-10T17:13:44.480Z,4.23
2018-12-10T17:15:47.057Z,4.23
2018-12-10T17:17:49.629Z,4.63
2018-12-10T17:19:52.202Z,6.73
2018-12-10T17:21:54.779Z,4.03
2018-12-10T17:23:57.377Z,4.47
2018-12-10T17:25:59.939Z,3.93
2018-12-10T17:28:02.507Z,2.93
2018-12-10T17:30:06.850Z,5.10
2018-12-10T17:32:09.409Z,4.63
2018-12-10T17:34:12.047Z,3.83
2018-12-10T17:36:14.616Z,4.10
2018-12-10T17:38:17.174Z,4.30
2018-12-10T17:40:19.993Z,4.70
2018-12-10T17:42:22.555Z,3.30
2018-12-10T17:44:25.158Z,3.50
2018-12-10T17:46:27.715Z,3.77
2018-12-10T17:48:30.283Z,4.30
2018-12-10T17:50:32.862Z,4.90
2018-12-10T17:52:35.521Z,5.50
2018-12-10T17:54:38.189Z,4.30
2018-12-10T17:56:41.028Z,3.90
2018-12-10T17:58:43.705Z,4.33
2018-12-10T18:00:46.288Z,2.80
2018-12-10T18:02:49.120Z,3.13
2018-12-10T18:04:51.717Z,3.70
2018-12-10T18:06:54.290Z,2.93
2018-12-10T18:08:56.939Z,2.90
2018-12-10T18:10:59.585Z,3.27
2018-12-10T18:13:02.147Z,3.57
2018-12-10T18:15:05.697Z,3.23
2018-12-10T18:17:09.102Z,3.37
2018-12-10T18:19:11.703Z,3.23
2018-12-10T18:21:15.648Z,3.50
2018-12-10T18:23:18.252Z,4.17
2018-12-10T18:25:20.857Z,3.87
2018-12-10T18:27:24.395Z,4.40
2018-12-10T18:29:27.103Z,3.73
2018-12-10T18:31:29.666Z,4.20
2018-12-10T18:33:32.692Z,5.20
2018-12-10T18:35:35.285Z,5.10
2018-12-10T18:37:37.882Z,5.00
2018-12-10T18:39:41.006Z,5.10
2018-12-10T18:41:43.644Z,6.30
2018-12-10T18:43:46.222Z,6.60
2018-12-10T18:45:48.816Z,5.37
2018-12-10T18:47:51.373Z,5.00
2018-12-10T18:49:53.975Z,5.60
2018-12-10T18:51:56.565Z,5.83
2018-12-10T18:54:01.227Z,4.00
2018-12-10T18:56:04.017Z,4.70
2018-12-10T18:58:06.571Z,4.13
2018-12-10T19:00:11.042Z,4.60
2018-12-10T19:02:14.473Z,4.47
2018-12-10T19:04:17.117Z,4.40
2018-12-10T19:06:20.874Z,4.23
2018-12-10T19:08:23.870Z,4.20
2018-12-10T19:10:26.481Z,5.20
2018-12-10T19:12:29.260Z,4.50
2018-12-10T19:14:31.894Z,4.90
2018-12-10T19:16:34.480Z,4.97
2018-12-10T19:18:37.086Z,6.97
2018-12-10T19:20:39.703Z,7.20
2018-12-10T19:22:42.293Z,7.90
2018-12-10T19:24:44.893Z,5.97
2018-12-10T19:26:47.474Z,6.17
2018-12-10T19:28:50.051Z,7.53
2018-12-10T19:30:52.676Z,6.17
2018-12-10T19:32:56.036Z,5.83
2018-12-10T19:34:58.671Z,5.77
2018-12-10T19:37:01.237Z,9.17
2018-12-10T19:39:06.903Z,6.50
2018-12-10T19:41:09.702Z,8.00
2018-12-10T19:43:12.273Z,6.30
2018-12-10T19:45:14.921Z,6.13
2018-12-10T19:47:17.503Z,6.33
2018-12-10T19:49:20.279Z,4.80
2018-12-10T19:51:22.890Z,5.17
2018-12-10T19:53:25.476Z,4.50
2018-12-10T19:55:28.156Z,4.80
2018-12-10T19:57:30.749Z,4.60
2018-12-10T19:59:33.337Z,4.20
2018-12-10T20:01:35.954Z,3.70
2018-12-10T20:03:39.572Z,3.67
2018-12-10T20:05:48.052Z,3.77
2018-12-10T20:07:50.626Z,3.47
2018-12-10T20:09:53.294Z,3.90
2018-12-10T20:11:56.519Z,4.00
2018-12-10T20:13:59.803Z,3.40
2018-12-10T20:16:02.480Z,4.70
2018-12-10T20:18:05.137Z,5.47
2018-12-10T20:20:08.114Z,4.40
2018-12-10T20:22:10.742Z,3.83
2018-12-10T20:24:14.419Z,4.10
2018-12-10T20:26:17.049Z,4.17
2018-12-10T20:28:19.637Z,6.03
2018-12-10T20:30:22.324Z,5.80
2018-12-10T20:32:24.976Z,4.27
2018-12-10T20:34:27.884Z,3.53
2018-12-10T20:36:30.555Z,4.80
2018-12-10T20:38:33.331Z,4.67
2018-12-10T20:40:36.128Z,5.27
2018-12-10T20:42:39.018Z,5.77
2018-12-10T20:44:42.138Z,5.23
2018-12-10T20:46:46.622Z,5.13
2018-12-10T20:48:51.239Z,5.10
2018-12-10T20:50:55.378Z,5.13
2018-12-10T20:52:58.738Z,4.30
2018-12-10T20:55:02.460Z,4.10
2018-12-10T20:57:05.304Z,4.17
2018-12-10T20:59:07.982Z,4.50
2018-12-10T21:01:11.477Z,3.30
2018-12-10T21:03:15.812Z,3.47
2018-12-10T21:05:18.913Z,3.23
2018-12-10T21:07:22.090Z,4.80
2018-12-10T21:09:24.721Z,3.83
2018-12-10T21:11:27.555Z,5.10
2018-12-10T21:13:30.537Z,4.13
2018-12-10T21:15:33.583Z,5.20
2018-12-10T21:17:36.898Z,5.80
2018-12-10T21:19:39.493Z,5.90
2018-12-10T21:21:42.152Z,6.60
2018-12-10T21:23:44.815Z,7.00
2018-12-10T21:25:47.370Z,8.60
2018-12-10T21:27:49.968Z,7.03
2018-12-10T21:29:52.541Z,4.53
2018-12-10T21:31:55.185Z,5.80
2018-12-10T21:33:57.742Z,4.60
2018-12-10T21:36:00.321Z,3.70
2018-12-10T21:38:02.948Z,3.40
2018-12-10T21:40:05.721Z,3.00
2018-12-10T21:42:08.371Z,2.90
2018-12-10T21:44:10.968Z,2.70
2018-12-10T21:46:13.523Z,2.70
2018-12-10T21:48:16.111Z,3.17
2018-12-10T21:50:18.687Z,3.00
2018-12-10T21:52:21.283Z,2.70
2018-12-10T21:54:23.857Z,3.53
2018-12-10T21:56:26.547Z,2.80
2018-12-10T21:58:29.215Z,2.77
2018-12-10T22:00:31.783Z,2.50
2018-12-10T22:02:34.394Z,3.10
2018-12-10T22:04:37.063Z,3.40
2018-12-10T22:06:39.626Z,3.17
2018-12-10T22:08:42.224Z,5.10
2018-12-10T22:10:44.815Z,4.17
2018-12-10T22:12:47.420Z,3.43
2018-12-10T22:14:49.986Z,3.30
2018-12-10T22:16:52.614Z,3.30
2018-12-10T22:18:55.195Z,3.17
2018-12-10T22:20:57.787Z,3.50
2018-12-10T22:23:00.374Z,3.67
2018-12-10T22:25:03.225Z,3.17
2018-12-10T22:27:05.816Z,3.20
2018-12-10T22:29:08.415Z,3.67
2018-12-10T22:31:10.967Z,2.30
2018-12-10T22:33:13.565Z,2.20
2018-12-10T22:35:16.146Z,2.20
2018-12-10T22:37:18.738Z,2.60
2018-12-10T22:39:22.245Z,1.97
2018-12-10T22:41:25.048Z,2.17
2018-12-10T22:43:27.639Z,1.80
2018-12-10T22:45:30.191Z,2.30
2018-12-10T22:47:32.761Z,2.10
2018-12-10T22:49:36.226Z,2.70
2018-12-10T22:51:38.902Z,2.20
2018-12-10T22:53:41.497Z,2.50
2018-12-10T22:55:44.802Z,2.00
2018-12-10T22:57:47.370Z,2.40
2018-12-10T22:59:49.974Z,1.97
2018-12-10T23:01:52.551Z,2.90
2018-12-10T23:03:55.184Z,1.97
2018-12-10T23:05:57.800Z,2.50
2018-12-10T23:08:00.373Z,2.80
2018-12-10T23:10:03.789Z,1.90
2018-12-10T23:12:06.343Z,2.20
2018-12-10T23:14:08.943Z,2.00
2018-12-10T23:16:11.495Z,2.33
2018-12-10T23:18:14.088Z,2.23
2018-12-10T23:20:17.803Z,2.27
2018-12-10T23:22:20.568Z,2.30
2018-12-10T23:24:23.181Z,2.90
2018-12-10T23:26:25.843Z,2.73
2018-12-10T23:28:28.401Z,2.50
2018-12-10T23:30:31.057Z,2.40
2018-12-10T23:32:33.620Z,2.07
2018-12-10T23:34:36.208Z,2.37
2018-12-10T23:36:38.765Z,2.23
2018-12-10T23:38:41.367Z,2.30
2018-12-10T23:40:43.947Z,2.57
2018-12-10T23:42:52.071Z,2.17
2018-12-10T23:44:55.263Z,2.70
2018-12-10T23:46:57.826Z,2.67
2018-12-10T23:49:00.481Z,3.60
2018-12-10T23:51:03.379Z,2.77
2018-12-10T23:53:06.195Z,2.50
2018-12-10T23:55:08.994Z,3.00
2018-12-10T23:57:11.651Z,2.53
2018-12-10T23:59:14.258Z,2.60
